Portada
METAR-TAF:

METAR-TAF

Aeroports :

Gabès, Tunísia

latitud: 33-53N, longitud: 010-06E, altitud: 4 m

Observació

L'informe es va fer fa 15 minuts, a les 13:00 UTC
Vent 10 kt del Est/Nord-Est, variant entre Nord/Nord-Est i Est
Temperatura 28°C
Humitat 45%
Pressió 1013 hPa
Visibilitat 10 km o més
Núvols disperses a una alçada de 3000 ft

METAR: DTTG 161300Z 06010KT 030V090 9999 SCT030 28/15 Q1013 NOSIG

Hora: 14:15 (13:15 UTC)

Pronòstic

L'informe es va fer fa 1 hora i 15 minuts, a les 12:00 UTC
Pronòstic vàlid del 16 a les 13 UTC al 16 a les 22 UTC
Vent 5 kt del Est/Nord-Est
Visibilitat 10 km o més
Núvols disperses a una alçada de 3000 ft
Probabilitat 30% :
Temporalment
l' 16 a les 16 UTC al 16 a les 20 UTC
Vent 15 kt del Est amb ràfegues de 25 kt
Visibilitat: 4000 m
Núvols disperses a una alçada de 2600 ft, Cumulonimbus.
tempesta, pluja

TAF: DTTG 161200Z 1613/1622 07005KT 9999 SCT030 PROB30 TEMPO 1616/1620 09015G25KT 4000 -TSRA SCT026CB

Observacions i pronòstics meteorològics de més de 4000 aeroports (METAR i TAF).

Les estacions disponibles són els punts grocs i vermells al mapa.

Posi el ratolí al punt desitjat per veure el nom de l'estació.

Feu clic per veure les observacions i els pronòstics meteorològics.

Per canviar el mapa: feu clic els botons verds amb una creu de color negre per apropar; al botó verd amb un guió per allunyar la imatge; o en les fletxes verdes per a mapes adjacents.


METAR-TAF: